createdAt,value
2018-07-04T00:00:18.617Z,0.00
2018-07-04T00:01:18.547Z,0.00
2018-07-04T00:02:18.505Z,0.00
2018-07-04T00:03:18.457Z,0.00
2018-07-04T00:04:18.411Z,0.00
2018-07-04T00:05:18.393Z,0.00
2018-07-04T00:06:18.316Z,0.00
2018-07-04T00:07:18.276Z,0.00
2018-07-04T00:08:18.225Z,0.00
2018-07-04T00:09:18.181Z,0.00
2018-07-04T00:10:18.162Z,0.00
2018-07-04T00:11:18.089Z,0.00
2018-07-04T00:12:18.049Z,0.00
2018-07-04T00:13:17.995Z,0.00
2018-07-04T00:14:17.948Z,0.00
2018-07-04T00:15:17.926Z,0.00
2018-07-04T00:16:17.855Z,0.00
2018-07-04T00:17:17.807Z,0.00
2018-07-04T00:18:17.760Z,0.00
2018-07-04T00:19:17.721Z,0.00
2018-07-04T00:20:17.670Z,0.00
2018-07-04T00:21:17.639Z,0.00
2018-07-04T00:22:17.573Z,0.00
2018-07-04T00:23:17.528Z,0.00
2018-07-04T00:24:17.477Z,0.00
2018-07-04T00:25:17.435Z,0.00
2018-07-04T00:26:17.413Z,0.00
2018-07-04T00:27:17.339Z,0.00
2018-07-04T00:28:17.301Z,0.00
2018-07-04T00:29:17.247Z,0.00
2018-07-04T00:30:17.200Z,0.00
2018-07-04T00:31:17.222Z,0.00
2018-07-04T00:32:17.109Z,0.00
2018-07-04T00:33:17.060Z,0.00
2018-07-04T00:34:17.013Z,0.00
2018-07-04T00:35:16.970Z,0.00
2018-07-04T00:36:16.947Z,0.00
2018-07-04T00:37:16.877Z,0.00
2018-07-04T00:38:16.825Z,0.00
2018-07-04T00:39:16.780Z,0.00
2018-07-04T00:40:16.736Z,0.00
2018-07-04T00:41:16.724Z,0.00
2018-07-04T00:42:16.642Z,0.00
2018-07-04T00:43:16.595Z,0.00
2018-07-04T00:44:16.549Z,0.00
2018-07-04T00:45:16.503Z,0.00
2018-07-04T00:46:16.453Z,0.00
2018-07-04T00:47:16.441Z,0.00
2018-07-04T00:48:16.364Z,0.00
2018-07-04T00:49:16.313Z,0.00
2018-07-04T00:50:16.268Z,0.00
2018-07-04T00:51:16.222Z,0.00
2018-07-04T00:52:16.193Z,0.00
2018-07-04T00:53:16.127Z,0.00
2018-07-04T00:54:16.079Z,0.00
2018-07-04T00:55:16.032Z,0.00
2018-07-04T00:56:15.997Z,0.00
2018-07-04T00:57:15.961Z,0.00
2018-07-04T00:58:15.894Z,0.00
2018-07-04T00:59:15.847Z,0.00
2018-07-04T01:00:15.802Z,0.00
2018-07-04T01:01:15.758Z,0.00
2018-07-04T01:02:15.732Z,0.00
2018-07-04T01:03:15.661Z,0.00
2018-07-04T01:04:15.618Z,0.00
2018-07-04T01:05:15.569Z,0.00
2018-07-04T01:06:15.522Z,0.00
2018-07-04T01:07:15.503Z,0.00
2018-07-04T01:08:15.426Z,0.00
2018-07-04T01:09:15.381Z,0.00
2018-07-04T01:10:15.339Z,0.00
2018-07-04T01:11:15.287Z,0.00
2018-07-04T01:12:15.242Z,0.00
2018-07-04T01:13:15.221Z,0.00
2018-07-04T01:14:15.149Z,0.00
2018-07-04T01:15:15.110Z,0.00
2018-07-04T01:16:15.052Z,0.00
2018-07-04T01:17:15.009Z,0.00
2018-07-04T01:18:14.982Z,0.00
2018-07-04T01:19:14.911Z,0.00
2018-07-04T01:20:14.875Z,0.00
2018-07-04T01:21:14.821Z,0.00
2018-07-04T01:22:14.773Z,0.00
2018-07-04T01:23:14.753Z,0.00
2018-07-04T01:24:14.684Z,0.00
2018-07-04T01:25:14.636Z,0.00
2018-07-04T01:26:14.586Z,0.00
2018-07-04T01:27:14.538Z,0.00
2018-07-04T01:28:14.522Z,0.00
2018-07-04T01:29:14.446Z,0.00
2018-07-04T01:30:14.400Z,0.00
2018-07-04T01:31:14.357Z,0.00
2018-07-04T01:32:14.308Z,0.00
2018-07-04T01:33:14.283Z,0.00
2018-07-04T01:34:14.214Z,0.00
2018-07-04T01:35:14.167Z,0.00
2018-07-04T01:36:14.126Z,0.00
2018-07-04T01:37:14.074Z,0.00
2018-07-04T01:38:14.054Z,0.00
2018-07-04T01:39:13.983Z,0.00
2018-07-04T01:40:13.933Z,0.00
2018-07-04T01:41:13.888Z,0.00
2018-07-04T01:42:13.852Z,0.00
2018-07-04T01:43:13.820Z,0.00
2018-07-04T01:44:13.747Z,0.00
2018-07-04T01:45:13.699Z,0.00
2018-07-04T01:46:13.656Z,0.00
2018-07-04T01:47:13.607Z,0.00
2018-07-04T01:48:13.582Z,0.00
2018-07-04T01:49:13.521Z,0.00
2018-07-04T01:50:13.471Z,0.00
2018-07-04T01:51:13.418Z,0.00
2018-07-04T01:52:13.378Z,0.00
2018-07-04T01:53:13.356Z,0.00
2018-07-04T01:54:13.281Z,0.00
2018-07-04T01:55:13.233Z,0.00
2018-07-04T01:56:13.187Z,0.00
2018-07-04T01:57:13.154Z,0.00
2018-07-04T01:58:13.093Z,0.00
2018-07-04T01:59:13.076Z,0.00
2018-07-04T02:00:13.004Z,0.00
2018-07-04T02:01:12.954Z,0.00
2018-07-04T02:02:12.905Z,0.00
2018-07-04T02:03:12.865Z,0.00
2018-07-04T02:04:12.837Z,0.00
2018-07-04T02:05:12.769Z,0.00
2018-07-04T02:06:12.722Z,0.00
2018-07-04T02:07:19.744Z,0.00
2018-07-04T02:08:12.629Z,0.00
2018-07-04T02:09:12.607Z,0.00
2018-07-04T02:10:12.534Z,0.00
2018-07-04T02:11:12.486Z,0.00
2018-07-04T02:12:12.446Z,0.00
2018-07-04T02:13:12.392Z,0.00
2018-07-04T02:14:12.368Z,0.00
2018-07-04T02:15:12.297Z,0.00
2018-07-04T02:16:12.254Z,0.00
2018-07-04T02:17:12.206Z,0.00
2018-07-04T02:18:12.156Z,0.00
2018-07-04T02:19:12.154Z,0.00
2018-07-04T02:20:12.065Z,0.00
2018-07-04T02:21:12.021Z,0.00
2018-07-04T02:22:11.980Z,0.00
2018-07-04T02:23:11.922Z,0.00
2018-07-04T02:24:11.878Z,0.00
2018-07-04T02:25:11.853Z,0.00
2018-07-04T02:26:11.784Z,0.00
2018-07-04T02:27:11.738Z,0.00
2018-07-04T02:28:11.690Z,0.00
2018-07-04T02:29:11.647Z,0.00
2018-07-04T02:30:11.622Z,4.00
2018-07-04T02:31:11.554Z,4.00
2018-07-04T02:32:11.502Z,0.00
2018-07-04T02:33:11.459Z,0.00
2018-07-04T02:34:11.409Z,0.00
2018-07-04T02:35:11.384Z,4.00
2018-07-04T02:36:11.316Z,0.00
2018-07-04T02:37:11.270Z,4.00
2018-07-04T02:38:11.223Z,4.00
2018-07-04T02:39:11.173Z,0.00
2018-07-04T02:40:11.150Z,4.00
2018-07-04T02:41:11.084Z,8.00
2018-07-04T02:42:11.035Z,4.00
2018-07-04T02:43:10.990Z,4.00
2018-07-04T02:44:10.947Z,8.00
2018-07-04T02:45:10.917Z,8.00
2018-07-04T02:46:10.851Z,8.00
2018-07-04T02:47:10.798Z,8.00
2018-07-04T02:48:10.757Z,12.00
2018-07-04T02:49:10.710Z,12.00
2018-07-04T02:50:10.689Z,12.00
2018-07-04T02:51:10.612Z,12.00
2018-07-04T02:52:10.570Z,12.00
2018-07-04T02:53:10.529Z,16.00
2018-07-04T02:54:10.473Z,20.00
2018-07-04T02:55:10.466Z,20.00
2018-07-04T02:56:10.382Z,24.00
2018-07-04T02:57:10.335Z,24.00
2018-07-04T02:58:10.283Z,28.00
2018-07-04T02:59:10.242Z,32.00
2018-07-04T03:00:10.192Z,36.00
2018-07-04T03:01:10.167Z,36.00
2018-07-04T03:02:10.102Z,40.00
2018-07-04T03:03:10.055Z,44.00
2018-07-04T03:04:10.006Z,48.00
2018-07-04T03:05:09.960Z,52.00
2018-07-04T03:06:09.995Z,60.00
2018-07-04T03:07:09.866Z,60.00
2018-07-04T03:08:09.817Z,68.00
2018-07-04T03:09:09.770Z,72.00
2018-07-04T03:10:09.721Z,80.00
2018-07-04T03:11:09.701Z,88.00
2018-07-04T03:12:09.629Z,92.00
2018-07-04T03:13:09.580Z,100.00
2018-07-04T03:14:09.536Z,108.00
2018-07-04T03:15:09.486Z,116.00
2018-07-04T03:16:09.464Z,124.00
2018-07-04T03:17:09.393Z,132.00
2018-07-04T03:18:09.349Z,140.00
2018-07-04T03:19:09.308Z,152.00
2018-07-04T03:20:09.254Z,160.00
2018-07-04T03:21:09.233Z,168.00
2018-07-04T03:22:09.166Z,180.00
2018-07-04T03:23:09.113Z,188.00
2018-07-04T03:24:09.068Z,200.00
2018-07-04T03:25:09.020Z,208.00
2018-07-04T03:26:09.008Z,220.00
2018-07-04T03:27:08.928Z,232.00
2018-07-04T03:28:08.882Z,244.00
2018-07-04T03:29:08.832Z,256.00
2018-07-04T03:30:08.786Z,272.00
2018-07-04T03:31:08.777Z,288.00
2018-07-04T03:32:08.695Z,300.00
2018-07-04T03:33:08.645Z,316.00
2018-07-04T03:34:08.597Z,332.00
2018-07-04T03:35:08.551Z,348.00
2018-07-04T03:36:08.504Z,364.00
2018-07-04T03:37:08.480Z,380.00
2018-07-04T03:38:15.528Z,404.00
2018-07-04T03:39:08.368Z,420.00
2018-07-04T03:40:08.321Z,440.00
2018-07-04T03:41:08.267Z,460.00
2018-07-04T03:42:08.246Z,476.00
2018-07-04T03:43:08.173Z,500.00
2018-07-04T03:44:08.126Z,520.00
2018-07-04T03:45:08.082Z,540.00
2018-07-04T03:46:08.034Z,564.00
2018-07-04T03:47:08.008Z,580.00
2018-07-04T03:48:07.939Z,600.00
2018-07-04T03:49:07.896Z,616.00
2018-07-04T03:50:07.850Z,636.00
2018-07-04T03:51:07.796Z,656.00
2018-07-04T03:52:07.775Z,668.00
2018-07-04T03:53:07.706Z,692.00
2018-07-04T03:54:07.658Z,708.00
2018-07-04T03:55:07.609Z,732.00
2018-07-04T03:56:07.568Z,748.00
2018-07-04T03:57:07.545Z,768.00
2018-07-04T03:58:07.522Z,788.00
2018-07-04T03:59:07.422Z,808.00
2018-07-04T04:00:07.376Z,828.00
2018-07-04T04:01:07.331Z,860.00
2018-07-04T04:02:07.310Z,888.00
2018-07-04T04:03:07.234Z,928.00
2018-07-04T04:04:07.191Z,968.00
2018-07-04T04:05:07.141Z,1008.00
2018-07-04T04:06:07.096Z,1056.00
2018-07-04T04:07:07.071Z,1108.00
2018-07-04T04:08:06.999Z,1168.00
2018-07-04T04:09:06.957Z,1232.00
2018-07-04T04:10:06.905Z,1304.00
2018-07-04T04:11:06.859Z,1380.00
2018-07-04T04:12:06.839Z,1460.00
2018-07-04T04:13:06.770Z,1548.00
2018-07-04T04:14:06.720Z,1640.00
2018-07-04T04:15:06.673Z,1736.00
2018-07-04T04:16:06.623Z,1840.00
2018-07-04T04:17:06.619Z,1924.00
2018-07-04T04:18:06.532Z,2052.00
2018-07-04T04:19:06.484Z,2148.00
2018-07-04T04:20:06.441Z,2236.00
2018-07-04T04:21:06.392Z,2316.00
2018-07-04T04:22:06.344Z,2368.00
2018-07-04T04:23:06.327Z,2460.00
2018-07-04T04:24:06.252Z,2572.00
2018-07-04T04:25:06.210Z,2724.00
2018-07-04T04:26:06.158Z,2872.00
2018-07-04T04:27:06.159Z,2932.00
2018-07-04T04:28:06.089Z,2952.00
2018-07-04T04:29:06.020Z,3044.00
2018-07-04T04:30:05.971Z,3108.00
2018-07-04T04:31:05.927Z,3108.00
2018-07-04T04:32:05.883Z,3136.00
2018-07-04T04:33:05.859Z,3184.00
2018-07-04T04:34:05.791Z,3256.00
2018-07-04T04:35:05.740Z,3352.00
2018-07-04T04:36:05.692Z,3384.00
2018-07-04T04:37:05.645Z,3404.00
2018-07-04T04:38:05.627Z,3288.00
2018-07-04T04:39:05.561Z,3196.00
2018-07-04T04:40:05.510Z,3084.00
2018-07-04T04:41:05.464Z,3080.00
2018-07-04T04:42:05.415Z,3228.00
2018-07-04T04:43:05.390Z,3324.00
2018-07-04T04:44:05.330Z,3300.00
2018-07-04T04:45:05.281Z,3316.00
2018-07-04T04:46:05.240Z,3400.00
2018-07-04T04:47:05.190Z,3428.00
2018-07-04T04:48:05.161Z,3396.00
2018-07-04T04:49:05.097Z,3352.00
2018-07-04T04:50:05.052Z,3360.00
2018-07-04T04:51:05.003Z,3392.00
2018-07-04T04:52:04.954Z,3436.00
2018-07-04T04:53:04.937Z,3456.00
2018-07-04T04:54:04.864Z,3476.00
2018-07-04T04:55:04.814Z,3584.00
2018-07-04T04:56:04.773Z,3648.00
2018-07-04T04:57:04.726Z,3728.00
2018-07-04T04:58:04.702Z,3692.00
2018-07-04T04:59:04.637Z,3744.00
2018-07-04T05:00:04.588Z,3864.00
2018-07-04T05:01:04.547Z,3712.00
2018-07-04T05:02:04.501Z,3540.00
2018-07-04T05:03:04.494Z,3380.00
2018-07-04T05:04:04.405Z,3588.00
2018-07-04T05:05:04.361Z,3788.00
2018-07-04T05:06:04.315Z,3948.00
2018-07-04T05:07:04.274Z,4200.00
2018-07-04T05:08:04.225Z,4344.00
2018-07-04T05:09:04.202Z,4488.00
2018-07-04T05:10:04.133Z,4576.00
2018-07-04T05:11:04.085Z,4576.00
2018-07-04T05:12:04.040Z,4548.00
2018-07-04T05:13:03.999Z,4536.00
2018-07-04T05:14:03.977Z,4692.00
2018-07-04T05:15:03.906Z,4824.00
2018-07-04T05:16:03.858Z,4924.00
2018-07-04T05:17:03.816Z,5076.00
2018-07-04T05:18:03.770Z,5128.00
2018-07-04T05:19:03.743Z,5040.00
2018-07-04T05:20:03.681Z,4844.00
2018-07-04T05:21:03.638Z,4796.00
2018-07-04T05:22:03.587Z,5004.00
2018-07-04T05:23:03.542Z,5064.00
2018-07-04T05:24:03.523Z,5108.00
2018-07-04T05:25:03.453Z,5256.00
2018-07-04T05:26:03.409Z,5332.00
2018-07-04T05:27:03.364Z,5648.00
2018-07-04T05:28:03.318Z,5820.00
2018-07-04T05:29:03.297Z,5864.00
2018-07-04T05:30:03.233Z,5580.00
2018-07-04T05:31:03.184Z,4684.00
2018-07-04T05:32:03.141Z,4784.00
2018-07-04T05:33:03.093Z,4772.00
2018-07-04T05:34:03.070Z,4760.00
2018-07-04T05:35:03.059Z,4776.00
2018-07-04T05:36:02.966Z,4808.00
2018-07-04T05:37:02.915Z,4820.00
2018-07-04T05:38:02.878Z,4848.00
2018-07-04T05:39:02.853Z,4832.00
2018-07-04T05:40:02.788Z,4860.00
2018-07-04T05:41:02.745Z,4980.00
2018-07-04T05:42:02.696Z,5036.00
2018-07-04T05:43:02.653Z,5064.00
2018-07-04T05:44:02.626Z,5088.00
2018-07-04T05:45:02.559Z,5072.00
2018-07-04T05:46:02.530Z,5112.00
2018-07-04T05:47:02.471Z,5132.00
2018-07-04T05:48:02.430Z,5108.00
2018-07-04T05:49:02.411Z,5092.00
2018-07-04T05:50:02.341Z,5108.00
2018-07-04T05:51:02.294Z,5100.00
2018-07-04T05:52:02.257Z,5192.00
2018-07-04T05:53:02.210Z,5172.00
2018-07-04T05:54:02.204Z,5264.00
2018-07-04T05:55:02.117Z,5308.00
2018-07-04T05:56:02.079Z,5364.00
2018-07-04T05:57:02.039Z,5296.00
2018-07-04T05:58:01.988Z,5288.00
2018-07-04T05:59:01.943Z,5300.00
2018-07-04T06:00:01.924Z,5288.00
2018-07-04T06:01:01.854Z,5288.00
2018-07-04T06:02:01.815Z,5252.00
2018-07-04T06:03:01.770Z,5256.00
2018-07-04T06:04:01.725Z,5340.00
2018-07-04T06:05:01.708Z,5352.00
2018-07-04T06:06:01.639Z,5328.00
2018-07-04T06:07:01.593Z,5320.00
2018-07-04T06:08:01.550Z,5348.00
2018-07-04T06:09:08.552Z,5312.00
2018-07-04T06:10:01.485Z,5284.00
2018-07-04T06:11:01.421Z,5292.00
2018-07-04T06:12:01.374Z,5272.00
2018-07-04T06:13:01.335Z,5240.00
2018-07-04T06:14:01.288Z,5228.00
2018-07-04T06:15:01.304Z,5188.00
2018-07-04T06:16:01.201Z,5180.00
2018-07-04T06:17:01.176Z,5188.00
2018-07-04T06:18:01.111Z,5168.00
2018-07-04T06:19:01.069Z,5168.00
2018-07-04T06:20:01.051Z,5200.00
2018-07-04T06:21:00.979Z,5168.00
2018-07-04T06:22:00.942Z,5140.00
2018-07-04T06:23:00.894Z,5176.00
2018-07-04T06:24:00.858Z,5196.00
2018-07-04T06:25:00.830Z,5228.00
2018-07-04T06:26:00.768Z,5192.00
2018-07-04T06:27:00.716Z,5200.00
2018-07-04T06:28:00.676Z,5204.00
2018-07-04T06:29:00.631Z,5184.00
2018-07-04T06:30:00.618Z,5184.00
2018-07-04T06:31:00.552Z,5188.00
2018-07-04T06:32:00.504Z,5116.00
2018-07-04T06:33:00.464Z,5132.00
2018-07-04T06:34:00.416Z,5140.00
2018-07-04T06:35:00.396Z,5108.00
2018-07-04T06:36:00.330Z,5104.00
2018-07-04T06:37:00.292Z,5008.00
2018-07-04T06:38:00.247Z,5088.00
2018-07-04T06:39:00.200Z,5044.00
2018-07-04T06:40:00.187Z,4960.00
2018-07-04T06:41:00.114Z,4984.00
2018-07-04T06:42:00.074Z,5116.00
2018-07-04T06:43:00.031Z,5168.00
2018-07-04T06:43:59.984Z,5176.00
2018-07-04T06:44:59.969Z,5212.00
2018-07-04T06:45:59.897Z,5312.00
2018-07-04T06:46:59.856Z,5292.00
2018-07-04T06:47:59.816Z,5308.00
2018-07-04T06:48:59.843Z,5276.00
2018-07-04T06:49:59.728Z,5292.00
2018-07-04T06:50:59.711Z,5192.00
2018-07-04T06:51:59.648Z,5200.00
2018-07-04T06:52:59.599Z,5196.00
2018-07-04T06:53:59.557Z,5204.00
2018-07-04T06:54:59.518Z,5192.00
2018-07-04T06:55:59.499Z,5184.00
2018-07-04T06:56:59.429Z,5196.00
2018-07-04T06:57:59.391Z,5216.00
2018-07-04T06:58:59.349Z,5208.00
2018-07-04T06:59:59.349Z,5180.00
2018-07-04T07:00:59.308Z,5132.00
2018-07-04T07:01:59.290Z,5192.00
2018-07-04T07:02:59.178Z,5188.00
2018-07-04T07:03:59.130Z,5172.00
2018-07-04T07:04:59.090Z,5280.00
2018-07-04T07:05:59.070Z,5260.00
2018-07-04T07:06:59.003Z,5284.00
2018-07-04T07:07:58.963Z,5212.00
2018-07-04T07:08:58.922Z,5208.00
2018-07-04T07:09:58.878Z,5232.00
2018-07-04T07:10:58.859Z,5248.00
2018-07-04T07:11:58.798Z,5220.00
2018-07-04T07:12:58.751Z,5228.00
2018-07-04T07:13:58.710Z,5296.00
2018-07-04T07:14:58.659Z,5216.00
2018-07-04T07:15:58.649Z,5212.00
2018-07-04T07:16:58.580Z,5168.00
2018-07-04T07:17:58.538Z,5168.00
2018-07-04T07:18:58.493Z,5156.00
2018-07-04T07:19:58.456Z,5160.00
2018-07-04T07:20:58.432Z,5156.00
2018-07-04T07:21:58.368Z,5132.00
2018-07-04T07:22:58.323Z,5168.00
2018-07-04T07:23:58.285Z,5112.00
2018-07-04T07:24:58.241Z,5116.00
2018-07-04T07:25:58.228Z,5116.00
2018-07-04T07:26:58.159Z,5124.00
2018-07-04T07:27:58.112Z,5160.00
2018-07-04T07:28:58.074Z,5168.00
2018-07-04T07:29:58.028Z,5180.00
2018-07-04T07:30:57.987Z,5160.00
2018-07-04T07:31:57.974Z,5144.00
2018-07-04T07:32:57.904Z,5100.00
2018-07-04T07:33:57.897Z,5080.00
2018-07-04T07:34:57.816Z,5080.00
2018-07-04T07:35:57.773Z,5036.00
2018-07-04T07:36:57.757Z,5044.00
2018-07-04T07:37:57.687Z,5028.00
2018-07-04T07:38:57.649Z,5088.00
2018-07-04T07:39:57.606Z,5036.00
2018-07-04T07:40:57.568Z,5000.00
2018-07-04T07:41:57.599Z,4952.00
2018-07-04T07:42:57.484Z,4912.00
2018-07-04T07:43:57.440Z,4916.00
2018-07-04T07:44:57.400Z,4880.00
2018-07-04T07:45:57.359Z,4836.00
2018-07-04T07:46:57.336Z,4752.00
2018-07-04T07:47:57.273Z,4760.00
2018-07-04T07:48:57.231Z,4636.00
2018-07-04T07:49:57.190Z,4536.00
2018-07-04T07:50:57.148Z,4388.00
2018-07-04T07:51:57.151Z,4320.00
2018-07-04T07:52:57.065Z,4188.00
2018-07-04T07:53:57.024Z,4072.00
2018-07-04T07:54:56.984Z,4084.00
2018-07-04T07:55:56.942Z,4000.00
2018-07-04T07:56:56.902Z,4016.00
2018-07-04T07:57:56.879Z,4164.00
2018-07-04T07:58:56.815Z,4288.00
2018-07-04T07:59:56.774Z,4388.00
2018-07-04T08:00:56.737Z,4536.00
2018-07-04T08:01:56.757Z,4700.00
2018-07-04T08:02:56.676Z,4860.00
2018-07-04T08:03:56.609Z,4924.00
2018-07-04T08:04:56.568Z,5008.00
2018-07-04T08:05:56.600Z,5160.00
2018-07-04T08:06:56.506Z,5272.00
2018-07-04T08:07:56.466Z,5324.00
2018-07-04T08:08:56.404Z,5324.00
2018-07-04T08:09:56.370Z,5312.00
2018-07-04T08:10:56.321Z,5292.00
2018-07-04T08:11:56.281Z,5224.00
2018-07-04T08:12:56.272Z,5200.00
2018-07-04T08:13:56.200Z,5136.00
2018-07-04T08:14:56.157Z,5084.00
2018-07-04T08:15:56.116Z,4652.00
2018-07-04T08:16:56.078Z,4800.00
2018-07-04T08:17:56.035Z,4812.00
2018-07-04T08:18:56.017Z,5008.00
2018-07-04T08:19:55.957Z,4984.00
2018-07-04T08:20:55.913Z,4944.00
2018-07-04T08:21:55.869Z,4948.00
2018-07-04T08:22:55.833Z,4984.00
2018-07-04T08:23:55.813Z,4944.00
2018-07-04T08:24:55.750Z,4904.00
2018-07-04T08:25:55.711Z,4820.00
2018-07-04T08:26:55.670Z,4728.00
2018-07-04T08:27:55.627Z,4672.00
2018-07-04T08:28:55.612Z,4616.00
2018-07-04T08:29:55.545Z,4560.00
2018-07-04T08:30:55.503Z,4536.00
2018-07-04T08:31:55.532Z,4484.00
2018-07-04T08:32:55.427Z,4468.00
2018-07-04T08:33:55.408Z,4448.00
2018-07-04T08:34:55.348Z,4416.00
2018-07-04T08:35:55.304Z,4416.00
2018-07-04T08:36:55.260Z,4444.00
2018-07-04T08:37:55.219Z,4464.00
2018-07-04T08:38:55.247Z,4484.00
2018-07-04T08:39:55.142Z,4448.00
2018-07-04T08:40:55.103Z,4460.00
2018-07-04T08:41:55.063Z,4424.00
2018-07-04T08:42:55.020Z,4384.00
2018-07-04T08:43:55.001Z,4196.00
2018-07-04T08:44:54.946Z,4580.00
2018-07-04T08:45:54.901Z,4668.00
2018-07-04T08:46:54.858Z,4712.00
2018-07-04T08:47:54.828Z,4712.00
2018-07-04T08:48:54.807Z,4744.00
2018-07-04T08:49:54.750Z,4772.00
2018-07-04T08:50:54.706Z,4828.00
2018-07-04T08:51:54.654Z,4856.00
2018-07-04T08:52:54.677Z,4976.00
2018-07-04T08:53:54.613Z,5000.00
2018-07-04T08:54:54.536Z,5088.00
2018-07-04T08:55:54.497Z,5256.00
2018-07-04T08:56:54.456Z,5328.00
2018-07-04T08:57:54.410Z,5312.00
2018-07-04T08:58:54.421Z,5396.00
2018-07-04T08:59:54.332Z,5436.00
2018-07-04T09:00:54.294Z,5580.00
2018-07-04T09:01:54.256Z,5692.00
2018-07-04T09:02:54.215Z,5784.00
2018-07-04T09:03:54.169Z,5920.00
2018-07-04T09:04:54.152Z,6344.00
2018-07-04T09:05:54.096Z,6300.00
2018-07-04T09:06:54.049Z,5680.00
2018-07-04T09:07:54.009Z,5356.00
2018-07-04T09:08:53.978Z,5240.00
2018-07-04T09:09:53.950Z,5092.00
2018-07-04T09:10:53.888Z,5152.00
2018-07-04T09:11:53.938Z,5144.00
2018-07-04T09:12:53.807Z,5232.00
2018-07-04T09:13:53.770Z,5312.00
2018-07-04T09:14:53.747Z,5444.00
2018-07-04T09:15:53.690Z,5460.00
2018-07-04T09:16:53.648Z,5524.00
2018-07-04T09:17:53.611Z,5544.00
2018-07-04T09:18:53.569Z,5584.00
2018-07-04T09:19:53.553Z,5600.00
2018-07-04T09:20:53.486Z,5604.00
2018-07-04T09:21:53.444Z,5612.00
2018-07-04T09:22:53.408Z,5704.00
2018-07-04T09:23:53.367Z,5796.00
2018-07-04T09:24:53.353Z,5908.00
2018-07-04T09:25:53.285Z,5900.00
2018-07-04T09:26:53.248Z,5840.00
2018-07-04T09:27:53.204Z,5884.00
2018-07-04T09:28:53.165Z,5660.00
2018-07-04T09:29:53.148Z,5508.00
2018-07-04T09:30:53.086Z,5664.00
2018-07-04T09:31:53.047Z,5656.00
2018-07-04T09:32:53.010Z,5636.00
2018-07-04T09:33:52.972Z,5640.00
2018-07-04T09:34:52.959Z,5724.00
2018-07-04T09:35:52.892Z,5784.00
2018-07-04T09:36:52.848Z,5740.00
2018-07-04T09:37:52.809Z,5756.00
2018-07-04T09:38:52.765Z,5636.00
2018-07-04T09:39:52.730Z,5428.00
2018-07-04T09:40:52.713Z,5012.00
2018-07-04T09:41:52.654Z,5512.00
2018-07-04T09:42:52.613Z,5488.00
2018-07-04T09:43:52.650Z,4820.00
2018-07-04T09:44:52.532Z,5188.00
2018-07-04T09:45:52.521Z,4780.00
2018-07-04T09:46:52.460Z,4552.00
2018-07-04T09:47:52.441Z,5324.00
2018-07-04T09:48:52.376Z,4876.00
2018-07-04T09:49:52.336Z,5140.00
2018-07-04T09:50:52.318Z,5360.00
2018-07-04T09:51:52.257Z,5524.00
2018-07-04T09:52:52.220Z,5784.00
2018-07-04T09:53:52.178Z,5580.00
2018-07-04T09:54:52.138Z,5568.00
2018-07-04T09:55:52.125Z,5784.00
2018-07-04T09:56:52.059Z,6132.00
2018-07-04T09:57:52.027Z,5788.00
2018-07-04T09:58:52.020Z,5904.00
2018-07-04T09:59:51.942Z,5996.00
2018-07-04T10:00:51.929Z,5972.00
2018-07-04T10:01:51.860Z,5672.00
2018-07-04T10:02:51.820Z,5804.00
2018-07-04T10:03:51.783Z,5756.00
2018-07-04T10:04:51.742Z,5428.00
2018-07-04T10:05:51.707Z,5236.00
2018-07-04T10:06:51.688Z,5520.00
2018-07-04T10:07:51.624Z,5556.00
2018-07-04T10:08:51.581Z,5536.00
2018-07-04T10:09:51.546Z,5416.00
2018-07-04T10:10:51.503Z,5332.00
2018-07-04T10:11:51.484Z,5292.00
2018-07-04T10:12:51.422Z,5316.00
2018-07-04T10:13:51.385Z,5356.00
2018-07-04T10:14:51.343Z,5388.00
2018-07-04T10:15:51.301Z,5456.00
2018-07-04T10:16:51.288Z,5504.00
2018-07-04T10:17:51.225Z,5516.00
2018-07-04T10:18:51.184Z,5540.00
2018-07-04T10:19:51.144Z,5576.00
2018-07-04T10:20:51.105Z,5628.00
2018-07-04T10:21:51.088Z,5768.00
2018-07-04T10:22:51.035Z,5888.00
2018-07-04T10:23:50.984Z,5796.00
2018-07-04T10:24:50.950Z,5680.00
2018-07-04T10:25:50.903Z,5752.00
2018-07-04T10:26:50.887Z,5716.00
2018-07-04T10:27:50.829Z,5744.00
2018-07-04T10:28:50.791Z,5792.00
2018-07-04T10:29:50.750Z,5848.00
2018-07-04T10:30:50.708Z,5920.00
2018-07-04T10:31:50.691Z,5880.00
2018-07-04T10:32:50.632Z,5852.00
2018-07-04T10:33:50.590Z,5784.00
2018-07-04T10:34:50.553Z,5692.00
2018-07-04T10:35:50.511Z,5676.00
2018-07-04T10:36:50.501Z,5744.00
2018-07-04T10:37:50.452Z,5844.00
2018-07-04T10:38:50.406Z,5900.00
2018-07-04T10:39:50.359Z,5960.00
2018-07-04T10:40:50.319Z,5988.00
2018-07-04T10:41:50.320Z,6028.00
2018-07-04T10:42:50.242Z,6064.00
2018-07-04T10:43:50.204Z,6112.00
2018-07-04T10:44:50.225Z,6104.00
2018-07-04T10:45:50.126Z,6072.00
2018-07-04T10:46:50.106Z,6048.00
2018-07-04T10:47:50.046Z,5992.00
2018-07-04T10:48:50.008Z,5964.00
2018-07-04T10:49:49.967Z,5896.00
2018-07-04T10:50:49.935Z,5832.00
2018-07-04T10:51:49.923Z,5740.00
2018-07-04T10:52:49.869Z,5632.00
2018-07-04T10:53:49.811Z,5584.00
2018-07-04T10:54:49.777Z,5580.00
2018-07-04T10:55:49.738Z,5572.00
2018-07-04T10:56:49.722Z,5552.00
2018-07-04T10:57:49.683Z,5532.00
2018-07-04T10:58:49.620Z,5548.00
2018-07-04T10:59:49.581Z,5524.00
2018-07-04T11:00:49.541Z,5500.00
2018-07-04T11:01:49.503Z,5476.00
2018-07-04T11:02:49.487Z,5456.00
2018-07-04T11:03:49.428Z,5412.00
2018-07-04T11:04:49.389Z,5416.00
2018-07-04T11:05:49.346Z,5404.00
2018-07-04T11:06:49.308Z,5384.00
2018-07-04T11:07:49.301Z,5400.00
2018-07-04T11:08:49.232Z,5408.00
2018-07-04T11:09:49.190Z,5424.00
2018-07-04T11:10:49.152Z,5460.00
2018-07-04T11:11:49.113Z,5512.00
2018-07-04T11:12:49.107Z,5504.00
2018-07-04T11:13:49.034Z,5524.00
2018-07-04T11:14:48.997Z,5556.00
2018-07-04T11:15:48.956Z,5592.00
2018-07-04T11:16:49.004Z,5632.00
2018-07-04T11:17:48.908Z,5636.00
2018-07-04T11:18:48.847Z,5616.00
2018-07-04T11:19:48.810Z,5656.00
2018-07-04T11:20:48.766Z,5700.00
2018-07-04T11:21:48.727Z,5676.00
2018-07-04T11:22:48.717Z,5764.00
2018-07-04T11:23:48.649Z,5764.00
2018-07-04T11:24:48.614Z,5716.00
2018-07-04T11:25:48.570Z,5676.00
2018-07-04T11:26:48.534Z,5612.00
2018-07-04T11:27:48.527Z,5520.00
2018-07-04T11:28:48.459Z,5456.00
2018-07-04T11:29:48.415Z,5396.00
2018-07-04T11:30:48.378Z,5428.00
2018-07-04T11:31:48.346Z,5480.00
2018-07-04T11:32:48.324Z,5524.00
2018-07-04T11:33:48.261Z,5552.00
2018-07-04T11:34:48.219Z,5624.00
2018-07-04T11:35:48.183Z,5636.00
2018-07-04T11:36:48.147Z,5608.00
2018-07-04T11:37:48.149Z,5576.00
2018-07-04T11:38:48.065Z,5592.00
2018-07-04T11:39:48.027Z,5688.00
2018-07-04T11:40:47.993Z,5764.00
2018-07-04T11:41:47.950Z,5808.00
2018-07-04T11:42:47.917Z,5764.00
2018-07-04T11:43:47.888Z,5760.00
2018-07-04T11:44:47.829Z,5800.00
2018-07-04T11:45:47.796Z,5768.00
2018-07-04T11:46:47.753Z,5740.00
2018-07-04T11:47:47.717Z,5760.00
2018-07-04T11:48:47.701Z,5684.00
2018-07-04T11:49:47.637Z,5592.00
2018-07-04T11:50:47.599Z,5432.00
2018-07-04T11:51:47.557Z,5324.00
2018-07-04T11:52:47.518Z,5484.00
2018-07-04T11:53:47.501Z,5520.00
2018-07-04T11:54:47.440Z,5732.00
2018-07-04T11:55:47.403Z,5868.00
2018-07-04T11:56:47.362Z,6068.00
2018-07-04T11:57:47.323Z,6252.00
2018-07-04T11:58:47.307Z,6212.00
2018-07-04T11:59:47.245Z,6024.00
2018-07-04T12:00:47.206Z,5784.00
2018-07-04T12:01:47.182Z,5732.00
2018-07-04T12:02:47.132Z,5940.00
2018-07-04T12:03:47.131Z,6276.00
2018-07-04T12:04:47.049Z,6848.00
2018-07-04T12:05:47.010Z,7228.00
2018-07-04T12:06:46.971Z,7056.00
2018-07-04T12:07:46.935Z,6620.00
2018-07-04T12:08:46.923Z,6096.00
2018-07-04T12:09:46.859Z,5768.00
2018-07-04T12:10:46.816Z,5824.00
2018-07-04T12:11:46.776Z,6516.00
2018-07-04T12:12:46.734Z,6888.00
2018-07-04T12:13:46.719Z,7012.00
2018-07-04T12:14:46.660Z,6700.00
2018-07-04T12:15:46.616Z,6232.00
2018-07-04T12:16:46.575Z,6136.00
2018-07-04T12:17:46.537Z,6124.00
2018-07-04T12:18:46.525Z,6208.00
2018-07-04T12:19:46.459Z,6192.00
2018-07-04T12:20:46.420Z,6424.00
2018-07-04T12:21:46.378Z,6968.00
2018-07-04T12:22:46.343Z,7148.00
2018-07-04T12:23:46.333Z,6860.00